Time;durP1;ratioP1;P1;durP2;ratioP2;P2;SDS_P1;SDS_P2;PMS_P1;PMS_P2;Temp;Humidity;BMP_temperature;BMP_pressure;BME280_temperature;BME280_humidity;BME280_pressure;Samples;Min_cycle;Max_cycle;Signal;HPM_P1;HPM_P2
2022/07/24 00:02:08;;;;;;;10.47;9.13;;;23.20;46.10;;;;;;5051821;28;20507;-77
2022/07/24 00:04:35;;;;;;;11.30;10.20;;;23.20;46.30;;;;;;5041461;28;20488;-78
2022/07/24 00:07:02;;;;;;;10.90;9.87;;;23.20;46.40;;;;;;5047358;28;21014;-78
2022/07/24 00:09:29;;;;;;;10.33;9.40;;;23.20;46.20;;;;;;5048482;28;20471;-78
2022/07/24 00:11:56;;;;;;;10.70;9.60;;;23.30;46.40;;;;;;5040326;28;20477;-78
2022/07/24 00:14:24;;;;;;;11.40;10.30;;;23.20;46.50;;;;;;5044481;28;20425;-78
2022/07/24 00:16:51;;;;;;;11.07;9.80;;;23.20;46.90;;;;;;5034721;28;20468;-77
2022/07/24 00:19:18;;;;;;;10.57;9.67;;;23.20;46.80;;;;;;5054812;28;20556;-76
2022/07/24 00:21:45;;;;;;;10.40;9.27;;;23.10;47.20;;;;;;5045834;28;20889;-77
2022/07/24 00:24:12;;;;;;;10.77;9.73;;;23.00;47.40;;;;;;5041321;28;20451;-77
2022/07/24 00:26:39;;;;;;;10.70;9.70;;;22.90;47.90;;;;;;5047004;28;20419;-76
2022/07/24 00:29:06;;;;;;;9.60;8.70;;;23.00;48.70;;;;;;5056571;28;20553;-75
2022/07/24 00:31:34;;;;;;;10.20;9.20;;;23.00;47.90;;;;;;5056752;28;20444;-76
2022/07/24 00:34:01;;;;;;;10.17;9.17;;;23.00;47.70;;;;;;5056376;28;20486;-77
2022/07/24 00:36:28;;;;;;;10.33;9.43;;;23.00;47.70;;;;;;5038026;28;20450;-78
2022/07/24 00:38:55;;;;;;;9.93;8.97;;;22.90;47.90;;;;;;5035829;28;20429;-78
2022/07/24 00:41:21;;;;;;;10.27;9.30;;;22.90;48.20;;;;;;5034529;28;20495;-78
2022/07/24 00:44:03;;;;;;;9.77;8.77;;;22.80;48.40;;;;;;5037286;28;20454;-77
2022/07/24 00:46:30;;;;;;;9.60;8.70;;;22.80;48.60;;;;;;5036697;28;20774;-80
2022/07/24 00:48:59;;;;;;;10.10;9.20;;;22.80;49.00;;;;;;5038594;28;20865;-79
2022/07/24 00:51:26;;;;;;;10.40;9.40;;;22.80;49.00;;;;;;5037764;28;20484;-77
2022/07/24 00:53:53;;;;;;;11.83;10.83;;;22.80;49.00;;;;;;5036905;28;20970;-78
2022/07/24 00:56:20;;;;;;;10.27;9.47;;;22.80;49.00;;;;;;5041924;28;20912;-77
2022/07/24 00:58:48;;;;;;;10.17;9.17;;;22.70;49.10;;;;;;5042942;28;20417;-78
2022/07/24 01:01:14;;;;;;;10.10;9.27;;;22.70;49.40;;;;;;5044027;28;20458;-79
2022/07/24 01:03:42;;;;;;;10.93;9.83;;;22.70;49.40;;;;;;5029688;28;20443;-78
2022/07/24 01:06:10;;;;;;;10.67;9.77;;;22.70;49.30;;;;;;5022205;28;20539;-77
2022/07/24 01:08:38;;;;;;;10.70;9.60;;;22.60;49.70;;;;;;5044660;28;20568;-78
2022/07/24 01:11:05;;;;;;;10.60;9.70;;;22.50;49.80;;;;;;5044334;28;20563;-76
2022/07/24 01:13:32;;;;;;;11.20;10.10;;;22.50;50.40;;;;;;5044251;28;20425;-78
2022/07/24 01:16:00;;;;;;;10.10;9.20;;;22.40;50.50;;;;;;5051729;28;20429;-77
2022/07/24 01:18:27;;;;;;;12.60;10.83;;;22.30;51.00;;;;;;5054378;28;20447;-77
2022/07/24 01:20:56;;;;;;;10.83;9.73;;;22.20;50.90;;;;;;5054264;28;20470;-76
2022/07/24 01:23:23;;;;;;;10.33;9.43;;;22.20;50.90;;;;;;5057455;28;20449;-77
2022/07/24 01:25:50;;;;;;;10.83;9.87;;;22.10;50.80;;;;;;5056458;28;20524;-77
2022/07/24 01:28:17;;;;;;;10.47;9.47;;;22.10;50.80;;;;;;5049213;28;20459;-77
2022/07/24 01:30:44;;;;;;;10.30;9.37;;;22.10;50.80;;;;;;5046766;28;20481;-77
2022/07/24 01:33:11;;;;;;;10.17;9.27;;;22.10;50.80;;;;;;5043147;28;20465;-77
2022/07/24 01:35:39;;;;;;;10.00;9.20;;;22.10;50.80;;;;;;5052783;28;20462;-77
2022/07/24 01:38:08;;;;;;;10.23;9.20;;;22.00;50.70;;;;;;5057772;28;20501;-77
2022/07/24 01:40:35;;;;;;;10.70;9.60;;;21.90;50.70;;;;;;5056196;28;20468;-76
2022/07/24 01:43:07;;;;;;;10.00;9.20;;;22.00;51.00;;;;;;5058653;28;20433;-77
2022/07/24 01:45:34;;;;;;;10.20;9.40;;;21.90;51.40;;;;;;5025048;28;20442;-76
2022/07/24 01:48:01;;;;;;;9.70;8.90;;;21.80;51.90;;;;;;5025835;28;20916;-78
2022/07/24 01:50:28;;;;;;;10.80;9.90;;;21.70;52.20;;;;;;5043529;28;20472;-77
2022/07/24 01:52:55;;;;;;;14.00;9.67;;;21.70;52.70;;;;;;5046404;28;20439;-74
2022/07/24 01:55:24;;;;;;;10.83;9.80;;;21.70;52.80;;;;;;5059007;28;20465;-75
2022/07/24 01:57:50;;;;;;;10.00;9.10;;;21.60;53.00;;;;;;5057390;28;20446;-77
2022/07/24 02:00:18;;;;;;;10.57;9.70;;;21.60;52.70;;;;;;5040676;28;20464;-77
2022/07/24 02:02:45;;;;;;;10.40;9.30;;;21.50;53.10;;;;;;5041663;28;20520;-78
2022/07/24 02:05:14;;;;;;;10.90;9.80;;;21.50;52.50;;;;;;5044825;28;20448;-78
2022/07/24 02:07:41;;;;;;;11.23;9.87;;;21.50;52.40;;;;;;5042712;28;20491;-78
2022/07/24 02:10:08;;;;;;;10.87;9.07;;;21.50;53.00;;;;;;5045601;28;20503;-78
2022/07/24 02:12:36;;;;;;;9.97;9.07;;;21.50;52.60;;;;;;5039939;28;20466;-77
2022/07/24 02:15:04;;;;;;;10.87;9.97;;;21.60;53.30;;;;;;5044574;28;20868;-77
2022/07/24 02:17:31;;;;;;;10.33;9.43;;;21.50;52.30;;;;;;5049160;28;20466;-77
2022/07/24 02:19:58;;;;;;;11.93;10.27;;;21.50;52.40;;;;;;5048712;28;20458;-78
2022/07/24 02:22:25;;;;;;;11.67;10.50;;;21.50;52.80;;;;;;5042551;28;20458;-78
2022/07/24 02:24:52;;;;;;;11.50;10.40;;;21.40;53.10;;;;;;5041600;28;20464;-78
2022/07/24 02:27:18;;;;;;;10.57;9.67;;;21.40;53.50;;;;;;5041061;28;20433;-78
2022/07/24 02:29:47;;;;;;;9.70;8.93;;;21.30;53.60;;;;;;5049567;28;20925;-78
2022/07/24 02:32:14;;;;;;;13.80;9.80;;;21.30;54.10;;;;;;5055840;28;20465;-77
2022/07/24 02:34:41;;;;;;;11.50;10.30;;;21.20;54.40;;;;;;5055289;28;20446;-78
2022/07/24 02:37:08;;;;;;;10.03;9.20;;;21.10;54.60;;;;;;5057080;28;20474;-74
2022/07/24 02:39:35;;;;;;;9.70;8.90;;;21.10;54.40;;;;;;5057368;28;20476;-78
2022/07/24 02:42:02;;;;;;;10.67;9.30;;;21.10;53.10;;;;;;5056102;28;20467;-79
2022/07/24 02:44:29;;;;;;;10.23;9.23;;;21.10;52.80;;;;;;5055189;28;20476;-76
2022/07/24 02:46:57;;;;;;;9.67;8.60;;;21.00;52.80;;;;;;5053439;28;20425;-76
2022/07/24 02:49:24;;;;;;;9.67;8.80;;;21.00;51.30;;;;;;5056273;28;20889;-77
2022/07/24 02:51:51;;;;;;;9.80;8.37;;;21.00;51.40;;;;;;5044853;28;20867;-78
2022/07/24 02:54:18;;;;;;;9.20;8.40;;;20.90;51.50;;;;;;5040151;28;20549;-77
2022/07/24 02:56:45;;;;;;;8.80;8.10;;;20.90;51.60;;;;;;5052159;28;20425;-76
2022/07/24 02:59:13;;;;;;;10.10;9.20;;;20.90;52.80;;;;;;5055373;28;20438;-76
2022/07/24 03:01:41;;;;;;;10.00;9.00;;;20.90;54.60;;;;;;5056062;28;20521;-75
2022/07/24 03:04:09;;;;;;;11.63;9.97;;;20.90;56.80;;;;;;5056011;28;20421;-77
2022/07/24 03:06:36;;;;;;;12.13;10.50;;;20.90;57.50;;;;;;5037352;28;20954;-78
2022/07/24 03:09:03;;;;;;;12.40;10.10;;;20.90;58.30;;;;;;5038136;28;20469;-78
2022/07/24 03:11:30;;;;;;;12.30;11.10;;;20.90;59.00;;;;;;5040483;28;20461;-78
2022/07/24 03:13:57;;;;;;;11.90;10.90;;;20.70;59.30;;;;;;5037599;28;20490;-78
2022/07/24 03:16:24;;;;;;;11.63;10.43;;;20.70;59.30;;;;;;5040887;28;20457;-78
2022/07/24 03:18:51;;;;;;;12.53;10.23;;;20.70;59.30;;;;;;5040397;28;20457;-78
2022/07/24 03:21:19;;;;;;;10.90;9.93;;;20.70;59.30;;;;;;5039055;28;20448;-78
2022/07/24 03:23:46;;;;;;;11.40;10.40;;;20.70;59.70;;;;;;5039686;28;20539;-77
2022/07/24 03:26:13;;;;;;;11.93;10.37;;;20.70;60.00;;;;;;5039595;28;20464;-78
2022/07/24 03:28:40;;;;;;;10.63;9.63;;;20.70;60.00;;;;;;5044668;28;20471;-78
2022/07/24 03:31:07;;;;;;;12.60;11.40;;;20.70;61.30;;;;;;5050356;28;20460;-77
2022/07/24 03:33:36;;;;;;;10.30;9.40;;;20.70;60.70;;;;;;5052409;28;20432;-79
2022/07/24 03:36:03;;;;;;;12.80;10.67;;;20.70;60.60;;;;;;5051587;28;20447;-77
2022/07/24 03:38:31;;;;;;;10.33;9.33;;;20.60;60.70;;;;;;5041921;28;20428;-79
2022/07/24 03:40:58;;;;;;;10.53;9.60;;;20.60;61.30;;;;;;5039043;28;20521;-78
2022/07/24 03:43:25;;;;;;;11.63;10.53;;;20.60;61.00;;;;;;5038931;28;20424;-76
2022/07/24 03:45:52;;;;;;;11.67;10.53;;;20.60;61.70;;;;;;5039916;28;20496;-78
2022/07/24 03:48:18;;;;;;;11.30;10.30;;;20.60;60.90;;;;;;5040326;28;20516;-77
2022/07/24 03:50:45;;;;;;;11.10;10.10;;;20.50;61.10;;;;;;5037775;28;20936;-78
2022/07/24 03:53:12;;;;;;;11.70;10.60;;;20.50;61.50;;;;;;5041540;28;20484;-77
2022/07/24 03:55:40;;;;;;;11.90;10.80;;;20.40;62.30;;;;;;5049611;28;20513;-77
2022/07/24 03:58:07;;;;;;;11.00;10.00;;;20.40;62.50;;;;;;5045818;28;20454;-76
2022/07/24 04:00:34;;;;;;;10.53;9.53;;;20.30;62.90;;;;;;5045149;28;20588;-76
2022/07/24 04:03:01;;;;;;;11.10;10.10;;;20.30;63.10;;;;;;5027369;28;20935;-78
2022/07/24 04:05:28;;;;;;;11.03;10.03;;;20.30;62.90;;;;;;5038645;28;20503;-77
2022/07/24 04:07:55;;;;;;;9.43;8.63;;;20.30;62.80;;;;;;5038453;28;20435;-77
2022/07/24 04:10:22;;;;;;;10.67;9.77;;;20.30;61.80;;;;;;5036507;28;20988;-77
2022/07/24 04:12:50;;;;;;;10.80;9.70;;;20.30;62.00;;;;;;5036130;28;20925;-77
2022/07/24 04:15:17;;;;;;;10.43;9.43;;;20.30;61.70;;;;;;5040826;28;20435;-76
2022/07/24 04:17:45;;;;;;;12.30;10.60;;;20.40;61.70;;;;;;5045023;28;20521;-77
2022/07/24 04:20:12;;;;;;;10.90;9.90;;;20.40;62.10;;;;;;5037864;28;20474;-77
2022/07/24 04:22:39;;;;;;;12.17;11.07;;;20.40;61.90;;;;;;5035544;28;20478;-77
2022/07/24 04:25:08;;;;;;;11.10;10.10;;;20.30;62.30;;;;;;5035289;28;20428;-78
2022/07/24 04:27:35;;;;;;;11.73;10.63;;;20.40;61.90;;;;;;5040068;28;20454;-77
2022/07/24 04:30:04;;;;;;;12.60;9.80;;;20.40;62.70;;;;;;5040013;28;20485;-77
2022/07/24 04:32:31;;;;;;;10.33;9.37;;;20.40;61.70;;;;;;5039367;28;20428;-78
2022/07/24 04:34:58;;;;;;;10.97;9.87;;;20.40;62.30;;;;;;5037084;28;20460;-78
2022/07/24 04:37:25;;;;;;;12.67;11.13;;;20.50;61.50;;;;;;5036429;28;20481;-77
2022/07/24 04:39:52;;;;;;;10.70;9.80;;;20.50;60.90;;;;;;5036579;28;20480;-79
2022/07/24 04:42:18;;;;;;;10.93;9.83;;;20.60;60.90;;;;;;5035598;28;20468;-77
2022/07/24 04:44:45;;;;;;;11.40;10.37;;;20.70;60.00;;;;;;5033900;28;20446;-76
2022/07/24 04:47:13;;;;;;;11.50;9.90;;;20.70;59.40;;;;;;5036894;28;20428;-77
2022/07/24 04:49:40;;;;;;;11.40;10.20;;;20.80;59.30;;;;;;5033377;28;20821;-77
2022/07/24 04:52:07;;;;;;;10.63;9.63;;;21.00;59.20;;;;;;5044397;28;20438;-76
2022/07/24 04:54:34;;;;;;;10.80;9.77;;;21.10;58.20;;;;;;5037746;28;20545;-77
2022/07/24 04:57:01;;;;;;;11.43;10.37;;;21.20;57.70;;;;;;5038611;28;20420;-77
2022/07/24 04:59:28;;;;;;;11.17;10.27;;;21.40;56.60;;;;;;5040650;28;21086;-77
2022/07/24 05:01:55;;;;;;;10.40;9.40;;;21.50;56.50;;;;;;5046454;28;20432;-77
2022/07/24 05:04:23;;;;;;;10.57;9.57;;;21.60;55.60;;;;;;5049789;28;20431;-78
2022/07/24 05:06:50;;;;;;;10.57;9.57;;;21.90;54.80;;;;;;5047292;28;20441;-77
2022/07/24 05:09:16;;;;;;;10.50;9.60;;;22.60;51.80;;;;;;5055255;28;20715;-78
2022/07/24 05:11:43;;;;;;;10.00;9.03;;;23.30;50.30;;;;;;5053067;28;20519;-77
2022/07/24 05:14:10;;;;;;;10.87;9.80;;;23.70;47.80;;;;;;5050243;28;20463;-77
2022/07/24 05:16:38;;;;;;;10.27;9.37;;;24.20;45.80;;;;;;5050302;28;20432;-76
2022/07/24 05:19:05;;;;;;;9.10;8.30;;;24.80;43.30;;;;;;5050842;28;20434;-79
2022/07/24 05:21:33;;;;;;;10.03;9.03;;;25.40;42.70;;;;;;5052629;28;20488;-77
2022/07/24 05:24:01;;;;;;;10.10;9.20;;;25.70;40.90;;;;;;5053478;28;20438;-77
2022/07/24 05:26:31;;;;;;;8.50;7.70;;;26.00;39.70;;;;;;5056047;28;20439;-78
2022/07/24 05:28:58;;;;;;;10.67;9.40;;;26.20;38.60;;;;;;5055112;28;20526;-77
2022/07/24 05:31:24;;;;;;;10.77;8.90;;;26.50;37.70;;;;;;5036863;28;20882;-77
2022/07/24 05:33:51;;;;;;;10.00;9.00;;;26.70;36.90;;;;;;5037410;28;20430;-77
2022/07/24 05:36:18;;;;;;;9.13;8.33;;;27.00;35.90;;;;;;5040473;28;20428;-78
2022/07/24 05:38:47;;;;;;;9.07;8.27;;;27.40;34.90;;;;;;5043014;28;20450;-76
2022/07/24 05:41:14;;;;;;;9.10;8.40;;;27.40;34.80;;;;;;5038271;28;20461;-77
2022/07/24 05:43:41;;;;;;;11.57;8.87;;;27.30;34.70;;;;;;5038133;28;20461;-78
2022/07/24 05:46:08;;;;;;;9.60;8.80;;;27.40;34.50;;;;;;5040083;28;20519;-78
2022/07/24 05:48:35;;;;;;;9.40;8.50;;;27.60;33.10;;;;;;5038939;28;20459;-77
2022/07/24 05:51:02;;;;;;;8.53;7.73;;;27.50;33.30;;;;;;5040718;28;20561;-77
2022/07/24 05:53:28;;;;;;;11.27;8.47;;;27.40;32.40;;;;;;5038241;28;20858;-77
2022/07/24 05:55:57;;;;;;;8.30;7.60;;;27.50;32.30;;;;;;5048943;28;20419;-76
2022/07/24 05:58:23;;;;;;;9.10;8.30;;;27.60;32.00;;;;;;5057870;28;20477;-76
2022/07/24 06:00:50;;;;;;;8.97;8.17;;;27.70;31.70;;;;;;5040609;28;20485;-77
2022/07/24 06:03:17;;;;;;;9.67;8.77;;;27.70;31.90;;;;;;5039665;28;20459;-76
2022/07/24 06:05:44;;;;;;;8.93;8.13;;;27.90;31.80;;;;;;5050337;28;20492;-75
2022/07/24 06:08:11;;;;;;;8.70;7.90;;;28.00;31.60;;;;;;5050418;28;20541;-75
2022/07/24 06:10:38;;;;;;;8.87;8.17;;;28.20;31.50;;;;;;5049424;28;20494;-76
2022/07/24 06:13:06;;;;;;;8.90;8.00;;;28.60;30.80;;;;;;5042223;28;20458;-76
2022/07/24 06:15:33;;;;;;;9.40;8.60;;;28.80;30.60;;;;;;5036691;28;20454;-76
2022/07/24 06:18:00;;;;;;;10.00;9.10;;;28.70;30.80;;;;;;5039673;28;20491;-77
2022/07/24 06:20:27;;;;;;;9.00;8.20;;;28.60;30.40;;;;;;5055727;28;20568;-77
2022/07/24 06:22:54;;;;;;;8.87;8.17;;;28.40;30.20;;;;;;5053937;28;20447;-75
2022/07/24 06:25:22;;;;;;;9.10;7.63;;;28.30;30.20;;;;;;5051205;28;20473;-76
2022/07/24 06:27:53;;;;;;;8.90;8.00;;;28.50;29.40;;;;;;5049579;28;20549;-77
2022/07/24 06:30:26;;;;;;;8.57;7.67;;;28.50;29.40;;;;;;5052713;28;20515;-78
2022/07/24 06:32:55;;;;;;;9.23;8.33;;;28.70;29.00;;;;;;5054604;28;20534;-80
2022/07/24 06:35:27;;;;;;;9.13;8.43;;;28.80;28.80;;;;;;5055316;28;20454;-77
2022/07/24 06:37:55;;;;;;;8.73;7.60;;;29.10;28.60;;;;;;5053871;28;20495;-78
2022/07/24 06:40:22;;;;;;;8.20;6.70;;;28.90;28.70;;;;;;5055845;28;20483;-78
2022/07/24 06:42:50;;;;;;;9.33;8.00;;;28.80;28.80;;;;;;5056301;28;20483;-75
2022/07/24 06:45:17;;;;;;;8.90;8.00;;;28.80;28.90;;;;;;5054327;28;20471;-76
2022/07/24 06:47:46;;;;;;;8.40;7.70;;;28.90;28.90;;;;;;5046956;28;20966;-78
2022/07/24 06:50:14;;;;;;;7.83;7.13;;;28.90;28.60;;;;;;5048346;28;20517;-80
2022/07/24 06:52:41;;;;;;;8.60;7.80;;;29.10;28.50;;;;;;5055385;28;20495;-78
2022/07/24 06:55:09;;;;;;;9.80;8.67;;;29.10;28.60;;;;;;5054858;28;20479;-78
2022/07/24 06:57:37;;;;;;;9.40;8.70;;;29.10;28.70;;;;;;5055378;28;20458;-77
2022/07/24 07:00:06;;;;;;;11.33;9.10;;;28.70;29.30;;;;;;5055187;28;20496;-78
2022/07/24 07:02:33;;;;;;;9.80;8.90;;;27.80;31.00;;;;;;5052143;28;20475;-78
2022/07/24 07:05:02;;;;;;;9.33;8.50;;;27.10;32.80;;;;;;5044553;28;20959;-77
2022/07/24 07:07:29;;;;;;;9.47;8.60;;;26.50;34.20;;;;;;5052542;28;20445;-75
2022/07/24 07:09:56;;;;;;;10.20;9.20;;;26.20;34.80;;;;;;5051323;28;20486;-77
2022/07/24 07:12:23;;;;;;;9.67;8.67;;;26.10;35.10;;;;;;5048387;28;20470;-74
2022/07/24 07:14:49;;;;;;;9.93;8.93;;;26.10;34.80;;;;;;5045049;28;20449;-75
2022/07/24 07:17:17;;;;;;;9.77;8.90;;;26.00;33.80;;;;;;5046237;28;20453;-78
2022/07/24 07:19:44;;;;;;;11.50;8.83;;;25.70;35.30;;;;;;5051129;28;20445;-75
2022/07/24 07:22:13;;;;;;;9.60;8.60;;;25.60;36.00;;;;;;5051108;28;20439;-76
2022/07/24 07:24:40;;;;;;;9.10;8.20;;;25.50;36.30;;;;;;5051277;28;20488;-76
2022/07/24 07:27:07;;;;;;;8.77;8.00;;;25.60;35.30;;;;;;5050468;28;20452;-76
2022/07/24 07:29:34;;;;;;;8.53;7.73;;;25.60;36.00;;;;;;5047666;28;20477;-75
2022/07/24 07:32:00;;;;;;;9.17;8.37;;;25.80;35.70;;;;;;5044600;28;20547;-75
2022/07/24 07:34:27;;;;;;;9.20;8.30;;;25.80;34.70;;;;;;5042347;28;20461;-76
2022/07/24 07:36:54;;;;;;;9.20;8.30;;;25.60;35.40;;;;;;5043211;28;20497;-76
2022/07/24 07:39:23;;;;;;;8.37;7.60;;;25.60;35.10;;;;;;5046975;28;20428;-74
2022/07/24 07:41:50;;;;;;;8.77;7.97;;;25.70;34.70;;;;;;5044101;28;20528;-76
2022/07/24 07:44:17;;;;;;;9.23;8.30;;;25.90;33.80;;;;;;5045552;28;20451;-76
2022/07/24 07:46:44;;;;;;;9.33;8.33;;;26.00;33.80;;;;;;5048167;28;20447;-77
2022/07/24 07:49:11;;;;;;;8.63;7.90;;;26.20;34.00;;;;;;5046252;28;20446;-78
2022/07/24 07:51:38;;;;;;;8.07;7.37;;;26.20;34.00;;;;;;5048290;28;20480;-76
2022/07/24 07:54:05;;;;;;;8.90;8.10;;;26.10;33.90;;;;;;5038532;28;20461;-76
2022/07/24 07:56:33;;;;;;;8.97;8.17;;;26.10;33.90;;;;;;5033963;28;20453;-76
2022/07/24 07:59:00;;;;;;;8.77;7.97;;;26.20;34.00;;;;;;5035044;28;20432;-76
2022/07/24 08:01:27;;;;;;;9.20;8.40;;;26.30;34.00;;;;;;5035391;28;20477;-75
2022/07/24 08:03:54;;;;;;;9.23;8.50;;;26.30;34.00;;;;;;5037141;28;20462;-77
2022/07/24 08:06:20;;;;;;;10.53;8.67;;;26.20;34.00;;;;;;5036604;28;20529;-76
2022/07/24 08:08:47;;;;;;;9.13;8.23;;;26.20;34.00;;;;;;5035861;28;20435;-76
2022/07/24 08:11:14;;;;;;;9.13;8.40;;;26.00;34.40;;;;;;5035747;28;20491;-75
2022/07/24 08:13:42;;;;;;;10.07;8.73;;;26.10;34.60;;;;;;5034353;28;20545;-76
2022/07/24 08:16:09;;;;;;;9.77;8.80;;;26.20;34.00;;;;;;5031734;28;20962;-76
2022/07/24 08:18:36;;;;;;;9.63;8.83;;;26.20;34.00;;;;;;5042239;28;20470;-75
2022/07/24 08:21:03;;;;;;;9.93;9.03;;;26.30;34.00;;;;;;5051900;28;20456;-75
2022/07/24 08:23:30;;;;;;;9.83;7.80;;;26.40;34.10;;;;;;5053789;28;20588;-76
2022/07/24 08:25:57;;;;;;;9.50;8.80;;;26.70;34.30;;;;;;5053217;28;20452;-77
2022/07/24 08:28:24;;;;;;;9.00;8.20;;;26.80;33.60;;;;;;5052764;28;20426;-77
2022/07/24 08:30:53;;;;;;;10.03;9.10;;;26.70;34.30;;;;;;5051425;28;20464;-76
2022/07/24 08:33:20;;;;;;;8.97;8.07;;;26.80;33.30;;;;;;5035883;28;20537;-76
2022/07/24 08:35:47;;;;;;;8.37;7.50;;;26.80;33.70;;;;;;5034623;28;20431;-76
2022/07/24 08:38:14;;;;;;;9.60;8.73;;;27.10;33.20;;;;;;5034726;28;20425;-76
2022/07/24 08:40:41;;;;;;;11.00;8.00;;;27.20;31.90;;;;;;5033798;28;21027;-76
2022/07/24 08:43:09;;;;;;;9.13;8.43;;;27.30;32.10;;;;;;5034497;28;20430;-76
2022/07/24 08:45:38;;;;;;;9.10;8.40;;;27.40;31.20;;;;;;5035449;28;20455;-76
2022/07/24 08:48:08;;;;;;;8.80;7.90;;;27.30;31.10;;;;;;5034884;28;20454;-77
2022/07/24 08:50:37;;;;;;;8.43;7.80;;;27.30;31.20;;;;;;5035637;28;21014;-76
2022/07/24 08:53:04;;;;;;;8.80;8.00;;;27.40;31.60;;;;;;5037425;28;20432;-76
2022/07/24 08:55:31;;;;;;;8.20;7.60;;;27.60;30.50;;;;;;5041082;28;20464;-77
2022/07/24 08:57:58;;;;;;;8.67;7.93;;;27.50;30.60;;;;;;5049063;28;20439;-75
2022/07/24 09:00:26;;;;;;;9.00;8.30;;;27.50;30.70;;;;;;5040515;28;20452;-76
2022/07/24 09:02:53;;;;;;;8.03;7.43;;;27.60;30.60;;;;;;5031045;28;20501;-78
2022/07/24 09:05:21;;;;;;;8.87;7.47;;;27.70;29.80;;;;;;5027646;28;20471;-76
2022/07/24 09:07:48;;;;;;;8.37;7.53;;;27.60;29.30;;;;;;5034624;28;20430;-77
2022/07/24 09:10:17;;;;;;;7.80;7.20;;;27.20;30.20;;;;;;5036123;28;20451;-76
2022/07/24 09:12:46;;;;;;;8.23;7.47;;;27.30;29.30;;;;;;5038025;28;20467;-77
2022/07/24 09:15:14;;;;;;;8.50;7.80;;;27.40;29.60;;;;;;5045270;28;20439;-79
2022/07/24 09:17:59;;;;;;;8.70;7.73;;;27.50;29.20;;;;;;5039944;28;20460;-77
2022/07/24 09:20:29;;;;;;;7.70;7.00;;;27.60;29.20;;;;;;5033967;28;20824;-76
2022/07/24 09:22:58;;;;;;;7.83;6.53;;;27.80;28.20;;;;;;5043525;28;20448;-77
2022/07/24 09:25:27;;;;;;;7.63;6.87;;;27.90;29.00;;;;;;5044031;28;20452;-77
2022/07/24 09:27:56;;;;;;;8.43;7.33;;;28.10;28.70;;;;;;5055779;28;20440;-77
2022/07/24 09:30:26;;;;;;;8.50;7.70;;;28.20;28.50;;;;;;5056218;28;20459;-78
2022/07/24 09:32:54;;;;;;;8.80;7.47;;;28.10;27.50;;;;;;5056307;28;20540;-79
2022/07/24 09:35:24;;;;;;;8.87;8.13;;;28.00;28.00;;;;;;5056530;28;20465;-79
2022/07/24 09:37:57;;;;;;;8.10;7.40;;;28.20;27.70;;;;;;5057576;28;20503;-79
2022/07/24 09:40:29;;;;;;;7.67;7.07;;;28.10;28.40;;;;;;5060031;28;20477;-79
2022/07/24 09:43:12;;;;;;;7.00;6.43;;;28.40;28.00;;;;;;5051703;28;20433;-78
2022/07/24 09:45:56;;;;;;;8.70;8.00;;;28.70;27.10;;;;;;5040372;28;20496;-77
2022/07/24 09:48:25;;;;;;;8.83;7.90;;;28.70;27.20;;;;;;5043709;28;20432;-78
2022/07/24 09:50:53;;;;;;;8.07;6.93;;;28.60;26.50;;;;;;5044048;28;20461;-83
2022/07/24 09:53:24;;;;;;;7.70;7.00;;;28.70;26.30;;;;;;5059765;28;20454;-78
2022/07/24 09:56:02;;;;;;;7.27;6.67;;;28.90;26.40;;;;;;5038763;28;20456;-79
2022/07/24 09:58:31;;;;;;;8.10;7.40;;;29.00;26.50;;;;;;5038071;28;20457;-79
2022/07/24 10:01:00;;;;;;;8.17;7.50;;;29.30;26.60;;;;;;5037800;28;21017;-80
2022/07/24 10:03:29;;;;;;;7.70;7.00;;;29.30;25.10;;;;;;5039942;28;20565;-79
2022/07/24 10:05:58;;;;;;;9.00;7.40;;;29.30;25.40;;;;;;5038264;28;21066;-78
2022/07/24 10:08:27;;;;;;;9.10;8.23;;;29.10;26.20;;;;;;5038282;28;20573;-78
2022/07/24 10:10:54;;;;;;;8.33;7.63;;;29.00;26.50;;;;;;5040155;28;20448;-77
2022/07/24 10:13:24;;;;;;;10.70;7.20;;;28.60;26.30;;;;;;5043175;28;20517;-82
2022/07/24 10:15:55;;;;;;;7.20;6.57;;;28.80;26.40;;;;;;5059290;28;20510;-82
2022/07/24 10:18:25;;;;;;;9.73;7.07;;;29.00;25.10;;;;;;5060256;28;20412;-77
2022/07/24 10:21:06;;;;;;;7.60;6.93;;;29.10;24.90;;;;;;5053009;28;20463;-77
2022/07/24 10:23:59;;;;;;;6.83;6.30;;;29.30;23.60;;;;;;5045370;28;20458;-77
2022/07/24 10:26:34;;;;;;;7.60;6.80;;;29.50;23.30;;;;;;5027165;28;20807;-77
2022/07/24 10:29:10;;;;;;;7.07;6.37;;;29.50;22.10;;;;;;5042108;28;20469;-82
2022/07/24 10:31:38;;;;;;;7.80;7.10;;;29.50;22.40;;;;;;5052808;28;20588;-81
2022/07/24 10:34:16;;;;;;;5.90;5.40;;;29.50;23.30;;;;;;5045598;28;20815;-80
2022/07/24 10:36:49;;;;;;;10.40;6.63;;;29.60;22.60;;;;;;5026384;28;20445;-81
2022/07/24 10:39:29;;;;;;;7.10;6.50;;;29.70;23.20;;;;;;5038560;28;20458;-81
2022/07/24 10:42:03;;;;;;;6.93;6.03;;;29.50;22.80;;;;;;5043352;28;20469;-82
2022/07/24 10:44:30;;;;;;;7.90;7.20;;;29.50;23.20;;;;;;5042947;28;20460;-83
2022/07/24 10:47:06;;;;;;;10.03;6.33;;;29.40;23.30;;;;;;5040057;28;20450;-80
2022/07/24 10:49:41;;;;;;;6.20;5.70;;;29.50;22.50;;;;;;5041271;28;20556;-79
2022/07/24 10:52:10;;;;;;;7.10;6.50;;;29.40;22.10;;;;;;5039691;28;20448;-83
2022/07/24 10:54:39;;;;;;;5.40;5.00;;;29.50;22.00;;;;;;5026093;28;20538;-84
2022/07/24 10:57:06;;;;;;;7.57;6.07;;;29.80;21.20;;;;;;5041351;28;20460;-82
2022/07/24 10:59:35;;;;;;;8.17;5.90;;;30.20;20.40;;;;;;5039038;28;20477;-79
2022/07/24 11:02:25;;;;;;;5.37;5.07;;;30.50;19.40;;;;;;5039102;28;20548;-82
2022/07/24 11:05:23;;;;;;;7.47;5.90;;;30.70;19.70;;;;;;5039094;28;20463;-78
2022/07/24 11:08:29;;;;;;;6.20;5.60;;;30.80;19.30;;;;;;5038825;28;20453;-77
2022/07/24 11:11:00;;;;;;;5.60;5.23;;;31.00;19.10;;;;;;5014823;28;20476;-79
2022/07/24 11:13:53;;;;;;;6.00;5.50;;;31.20;19.20;;;;;;5035046;28;20474;-76
2022/07/24 11:16:28;;;;;;;6.70;5.50;;;31.20;19.20;;;;;;5016820;28;20444;-78
2022/07/24 11:19:30;;;;;;;5.50;5.00;;;31.20;19.20;;;;;;5016194;28;20545;-76
2022/07/24 11:22:11;;;;;;;5.50;5.10;;;31.30;18.80;;;;;;5014166;28;20558;-78
2022/07/24 11:25:22;;;;;;;6.53;6.03;;;31.40;18.20;;;;;;5015041;28;20458;-78
2022/07/24 11:27:56;;;;;;;5.23;4.93;;;31.50;17.40;;;;;;5010314;28;20461;-77
2022/07/24 11:30:24;;;;;;;4.57;4.27;;;31.40;17.30;;;;;;5035260;28;20485;-76
2022/07/24 11:32:51;;;;;;;6.13;4.80;;;31.40;16.90;;;;;;5018168;28;20536;-78
2022/07/24 11:35:27;;;;;;;6.47;5.90;;;31.50;16.70;;;;;;5023762;28;20459;-79
2022/07/24 11:37:55;;;;;;;5.97;5.50;;;31.10;17.70;;;;;;5037649;28;20456;-77
2022/07/24 11:40:28;;;;;;;5.70;5.30;;;30.90;18.10;;;;;;5034842;28;20489;-78
2022/07/24 11:42:58;;;;;;;5.83;5.17;;;31.20;17.50;;;;;;5034400;28;20494;-79
2022/07/24 11:45:25;;;;;;;5.77;5.27;;;31.30;17.50;;;;;;5035903;28;20467;-77
2022/07/24 11:47:54;;;;;;;6.17;5.67;;;31.40;17.30;;;;;;5036263;28;20455;-79
2022/07/24 11:50:28;;;;;;;5.63;5.13;;;31.40;17.90;;;;;;5038670;28;20544;-79
2022/07/24 11:52:55;;;;;;;5.53;5.13;;;31.70;17.30;;;;;;5039340;28;20478;-79
2022/07/24 11:55:25;;;;;;;5.43;5.03;;;31.60;17.20;;;;;;5038125;28;20514;-79
2022/07/24 11:57:53;;;;;;;6.13;5.70;;;31.50;17.60;;;;;;5037140;28;20449;-79
2022/07/24 12:00:23;;;;;;;6.10;5.60;;;31.50;17.80;;;;;;5036430;28;20472;-79
2022/07/24 12:02:52;;;;;;;6.70;6.17;;;31.40;18.30;;;;;;5037366;28;20409;-79
2022/07/24 12:05:26;;;;;;;6.30;5.70;;;31.50;18.40;;;;;;5035274;28;20458;-79
2022/07/24 12:07:53;;;;;;;5.97;5.37;;;31.60;17.50;;;;;;5035049;28;20442;-78
2022/07/24 12:10:22;;;;;;;6.10;5.60;;;31.30;18.20;;;;;;5034586;28;21000;-78
2022/07/24 12:12:50;;;;;;;6.80;6.20;;;31.30;18.60;;;;;;5034426;28;21001;-77
2022/07/24 12:15:17;;;;;;;6.70;5.90;;;31.10;19.20;;;;;;5036196;28;20485;-78
2022/07/24 12:18:02;;;;;;;6.33;5.70;;;31.10;19.00;;;;;;5036861;28;20465;-78
2022/07/24 12:20:32;;;;;;;6.07;5.57;;;31.40;18.50;;;;;;5037399;28;20475;-78
2022/07/24 12:23:00;;;;;;;6.53;6.03;;;31.40;18.60;;;;;;5036801;28;20537;-79
2022/07/24 12:25:28;;;;;;;6.13;5.53;;;31.10;19.10;;;;;;5036752;28;20455;-79
2022/07/24 12:28:04;;;;;;;6.70;6.10;;;31.20;19.20;;;;;;5036187;28;20458;-79
2022/07/24 12:30:32;;;;;;;5.93;5.37;;;31.30;18.70;;;;;;5036260;28;20581;-80
2022/07/24 12:33:03;;;;;;;6.00;5.40;;;31.50;18.50;;;;;;5036572;28;20487;-78
2022/07/24 12:35:32;;;;;;;6.73;5.80;;;31.50;18.70;;;;;;5038228;28;20486;-79
2022/07/24 12:38:02;;;;;;;6.47;5.97;;;31.40;19.30;;;;;;5042850;28;20462;-79
2022/07/24 12:40:35;;;;;;;6.07;5.57;;;31.40;18.80;;;;;;5046660;28;20478;-78
2022/07/24 12:43:09;;;;;;;6.50;6.00;;;31.40;19.30;;;;;;5051362;28;20443;-79
2022/07/24 12:45:36;;;;;;;6.37;5.90;;;31.20;19.20;;;;;;5057029;28;20426;-80
2022/07/24 12:48:26;;;;;;;6.27;5.83;;;31.10;19.10;;;;;;5057574;28;20442;-79
2022/07/24 12:51:06;;;;;;;7.80;6.10;;;31.20;19.20;;;;;;5056383;28;20498;-78